createdAt,value
2023-05-10T00:00:16.545Z,50.84
2023-05-10T00:00:48.362Z,50.63
2023-05-10T00:01:19.650Z,50.60
2023-05-10T00:01:51.021Z,50.77
2023-05-10T00:02:22.421Z,50.78
2023-05-10T00:02:53.867Z,50.43
2023-05-10T00:03:25.394Z,50.65
2023-05-10T00:03:56.873Z,50.53
2023-05-10T00:04:28.294Z,50.57
2023-05-10T00:04:59.692Z,50.29
2023-05-10T00:05:31.274Z,50.45
2023-05-10T00:06:02.678Z,50.74
2023-05-10T00:06:34.094Z,50.33
2023-05-10T00:07:05.456Z,50.42
2023-05-10T00:07:36.809Z,50.33
2023-05-10T00:08:08.122Z,50.56
2023-05-10T00:08:39.424Z,50.26
2023-05-10T00:09:10.790Z,50.24
2023-05-10T00:09:42.098Z,50.31
2023-05-10T00:10:13.583Z,50.19
2023-05-10T00:10:45.100Z,50.36
2023-05-10T00:11:16.437Z,50.14
2023-05-10T00:11:47.816Z,50.58
2023-05-10T00:12:19.181Z,50.50
2023-05-10T00:12:50.567Z,50.56
2023-05-10T00:13:22.015Z,50.32
2023-05-10T00:13:53.382Z,50.37
2023-05-10T00:14:24.717Z,50.49
2023-05-10T00:14:56.032Z,50.49
2023-05-10T00:15:27.426Z,50.26
2023-05-10T00:15:58.773Z,50.42
2023-05-10T00:16:30.102Z,50.43
2023-05-10T00:17:01.545Z,50.17
2023-05-10T00:17:32.995Z,50.50
2023-05-10T00:18:04.366Z,50.10
2023-05-10T00:18:35.740Z,50.40
2023-05-10T00:19:07.118Z,50.37
2023-05-10T00:19:38.450Z,50.39
2023-05-10T00:20:10.233Z,50.27
2023-05-10T00:20:41.639Z,50.48
2023-05-10T00:21:13.083Z,50.11
2023-05-10T00:21:44.493Z,50.34
2023-05-10T00:22:15.821Z,50.37
2023-05-10T00:22:47.204Z,50.43
2023-05-10T00:23:18.542Z,50.09
2023-05-10T00:23:49.966Z,50.07
2023-05-10T00:24:21.487Z,50.06
2023-05-10T00:24:52.883Z,50.45
2023-05-10T00:25:24.221Z,50.16
2023-05-10T00:25:55.560Z,50.40
2023-05-10T00:26:26.938Z,50.11
2023-05-10T00:26:58.258Z,50.36
2023-05-10T00:27:29.637Z,50.48
2023-05-10T00:28:00.998Z,50.00
2023-05-10T00:28:32.321Z,49.88
2023-05-10T00:29:03.652Z,50.39
2023-05-10T00:29:34.988Z,50.15
2023-05-10T00:30:06.595Z,50.51
2023-05-10T00:30:38.078Z,50.41
2023-05-10T00:31:09.415Z,50.32
2023-05-10T00:31:40.821Z,49.89
2023-05-10T00:32:12.330Z,50.19
2023-05-10T00:32:43.693Z,50.00
2023-05-10T00:33:15.129Z,50.28
2023-05-10T00:33:46.444Z,49.90
2023-05-10T00:34:17.867Z,50.29
2023-05-10T00:34:49.217Z,50.17
2023-05-10T00:35:20.591Z,50.33
2023-05-10T00:35:51.942Z,50.27
2023-05-10T00:36:23.278Z,50.08
2023-05-10T00:36:54.613Z,50.32
2023-05-10T00:37:25.956Z,50.02
2023-05-10T00:37:57.306Z,50.24
2023-05-10T00:38:28.658Z,49.95
2023-05-10T00:39:00.065Z,49.87
2023-05-10T00:39:31.388Z,50.15
2023-05-10T00:40:02.717Z,49.89
2023-05-10T00:40:34.114Z,50.33
2023-05-10T00:41:05.488Z,49.86
2023-05-10T00:41:36.801Z,49.76
2023-05-10T00:42:08.144Z,49.95
2023-05-10T00:42:39.549Z,50.21
2023-05-10T00:43:10.852Z,49.97
2023-05-10T00:43:42.216Z,50.24
2023-05-10T00:44:13.532Z,50.04
2023-05-10T00:44:44.853Z,50.05
2023-05-10T00:45:16.166Z,49.96
2023-05-10T00:45:47.535Z,50.19
2023-05-10T00:46:18.922Z,50.22
2023-05-10T00:46:50.300Z,49.96
2023-05-10T00:47:21.813Z,50.09
2023-05-10T00:47:53.271Z,49.92
2023-05-10T00:48:24.629Z,50.11
2023-05-10T00:48:56.039Z,50.31
2023-05-10T00:49:27.431Z,50.18
2023-05-10T00:49:58.772Z,50.23
2023-05-10T00:50:30.504Z,50.04
2023-05-10T00:51:02.114Z,50.18
2023-05-10T00:51:33.416Z,50.23
2023-05-10T00:52:04.807Z,49.95
2023-05-10T00:52:36.140Z,49.80
2023-05-10T00:53:07.545Z,50.08
2023-05-10T00:53:38.935Z,50.21
2023-05-10T00:54:11.933Z,49.73
2023-05-10T00:54:43.362Z,49.98
2023-05-10T00:55:14.734Z,50.18
2023-05-10T00:55:46.065Z,49.92
2023-05-10T00:56:17.372Z,50.21
2023-05-10T00:56:48.749Z,49.88
2023-05-10T00:57:20.362Z,50.04
2023-05-10T00:57:51.720Z,50.27
2023-05-10T00:58:23.013Z,50.11
2023-05-10T00:58:54.377Z,50.05
2023-05-10T00:59:25.766Z,50.19
2023-05-10T00:59:57.253Z,49.88
2023-05-10T01:00:28.651Z,49.79
2023-05-10T01:01:00.044Z,49.82
2023-05-10T01:01:31.526Z,50.02
2023-05-10T01:02:03.094Z,50.11
2023-05-10T01:02:35.034Z,50.14
2023-05-10T01:03:06.617Z,49.84
2023-05-10T01:03:38.158Z,50.15
2023-05-10T01:04:09.866Z,50.18
2023-05-10T01:04:41.230Z,49.93
2023-05-10T01:05:12.623Z,49.94
2023-05-10T01:05:44.004Z,50.00
2023-05-10T01:06:15.373Z,49.96
2023-05-10T01:06:46.742Z,49.97
2023-05-10T01:07:18.117Z,49.77
2023-05-10T01:07:49.480Z,50.15
2023-05-10T01:08:20.812Z,50.04
2023-05-10T01:08:52.160Z,49.71
2023-05-10T01:09:23.485Z,49.83
2023-05-10T01:09:54.822Z,50.01
2023-05-10T01:10:26.232Z,50.02
2023-05-10T01:10:57.566Z,49.84
2023-05-10T01:11:28.896Z,50.02
2023-05-10T01:12:00.254Z,49.61
2023-05-10T01:12:31.763Z,49.70
2023-05-10T01:13:03.194Z,50.11
2023-05-10T01:13:35.852Z,49.68
2023-05-10T01:14:07.223Z,49.77
2023-05-10T01:14:38.558Z,49.66
2023-05-10T01:15:09.956Z,49.68
2023-05-10T01:15:41.394Z,49.77
2023-05-10T01:16:12.787Z,49.76
2023-05-10T01:16:44.200Z,50.04
2023-05-10T01:17:15.474Z,50.09
2023-05-10T01:17:46.963Z,50.08
2023-05-10T01:18:18.427Z,50.13
2023-05-10T01:18:49.741Z,49.93
2023-05-10T01:19:24.825Z,49.83
2023-05-10T01:19:56.176Z,49.73
2023-05-10T01:20:27.934Z,50.12
2023-05-10T01:21:03.014Z,49.91
2023-05-10T01:21:37.994Z,49.80
2023-05-10T01:22:27.833Z,49.92
2023-05-10T01:23:11.852Z,49.94
2023-05-10T01:24:01.689Z,50.02
2023-05-10T01:24:51.494Z,49.96
2023-05-10T01:25:25.854Z,49.85
2023-05-10T01:26:23.325Z,50.04
2023-05-10T01:27:00.599Z,49.67
2023-05-10T01:27:39.481Z,49.96
2023-05-10T01:28:19.805Z,49.64
2023-05-10T01:28:59.906Z,49.75
2023-05-10T01:30:09.137Z,49.85
2023-05-10T01:30:45.273Z,49.88
2023-05-10T01:31:23.525Z,49.75
2023-05-10T01:32:21.219Z,50.05
2023-05-10T01:32:55.337Z,50.03
2023-05-10T01:33:32.433Z,49.83
2023-05-10T01:34:06.758Z,49.96
2023-05-10T01:35:04.339Z,49.79
2023-05-10T01:35:38.627Z,49.74
2023-05-10T01:36:14.215Z,49.84
2023-05-10T01:37:05.300Z,49.85
2023-05-10T01:37:43.647Z,49.68
2023-05-10T01:38:18.589Z,49.93
2023-05-10T01:38:54.221Z,49.79
2023-05-10T01:39:26.048Z,49.89
2023-05-10T01:40:06.445Z,49.82
2023-05-10T01:40:52.374Z,49.57
2023-05-10T01:41:38.947Z,49.80
2023-05-10T01:42:15.381Z,49.69
2023-05-10T01:42:48.710Z,50.02
2023-05-10T01:43:23.700Z,49.92
2023-05-10T01:43:55.032Z,49.99
2023-05-10T01:44:35.168Z,50.08
2023-05-10T01:45:06.733Z,49.78
2023-05-10T01:45:38.678Z,49.71
2023-05-10T01:46:15.743Z,49.73
2023-05-10T01:46:49.683Z,49.80
2023-05-10T01:47:23.311Z,50.01
2023-05-10T01:47:55.516Z,50.01
2023-05-10T01:48:26.880Z,49.77
2023-05-10T01:48:58.432Z,49.69
2023-05-10T01:49:31.695Z,49.59
2023-05-10T01:50:04.327Z,49.61
2023-05-10T01:50:36.564Z,49.45
2023-05-10T01:51:07.935Z,49.74
2023-05-10T01:51:46.050Z,49.35
2023-05-10T01:52:19.428Z,49.78
2023-05-10T01:52:54.567Z,49.81
2023-05-10T01:53:25.883Z,49.75
2023-05-10T01:54:01.996Z,49.76
2023-05-10T01:54:33.582Z,49.76
2023-05-10T01:55:09.130Z,49.65
2023-05-10T01:56:00.889Z,49.98
2023-05-10T01:56:33.112Z,49.73
2023-05-10T01:57:04.748Z,49.90
2023-05-10T01:57:36.486Z,49.65
2023-05-10T01:58:09.824Z,49.36
2023-05-10T01:58:41.148Z,49.86
2023-05-10T01:59:13.597Z,49.95
2023-05-10T01:59:44.982Z,49.70
2023-05-10T02:00:16.591Z,49.64
2023-05-10T02:00:48.209Z,49.67
2023-05-10T02:01:20.220Z,49.58
2023-05-10T02:01:51.628Z,49.63
2023-05-10T02:02:22.968Z,50.02
2023-05-10T02:02:54.356Z,49.97
2023-05-10T02:03:25.824Z,49.83
2023-05-10T02:03:57.232Z,49.65
2023-05-10T02:04:28.589Z,49.71
2023-05-10T02:04:59.979Z,49.66
2023-05-10T02:05:31.281Z,49.79
2023-05-10T02:06:02.657Z,49.61
2023-05-10T02:06:34.050Z,49.60
2023-05-10T02:07:05.613Z,49.46
2023-05-10T02:07:37.168Z,49.62
2023-05-10T02:08:08.527Z,49.62
2023-05-10T02:08:39.883Z,49.47
2023-05-10T02:09:11.252Z,49.53
2023-05-10T02:09:43.155Z,49.38
2023-05-10T02:10:14.719Z,49.42
2023-05-10T02:10:46.337Z,49.66
2023-05-10T02:11:17.693Z,49.65
2023-05-10T02:11:49.194Z,49.70
2023-05-10T02:12:20.565Z,49.87
2023-05-10T02:12:51.912Z,49.47
2023-05-10T02:13:24.362Z,49.88
2023-05-10T02:13:55.812Z,49.63
2023-05-10T02:14:27.199Z,49.55
2023-05-10T02:14:58.560Z,49.66
2023-05-10T02:15:29.910Z,49.82
2023-05-10T02:16:01.237Z,49.80
2023-05-10T02:16:32.710Z,49.41
2023-05-10T02:17:05.248Z,49.75
2023-05-10T02:17:36.969Z,49.57
2023-05-10T02:18:08.390Z,49.79
2023-05-10T02:18:39.855Z,49.83
2023-05-10T02:19:11.201Z,49.58
2023-05-10T02:19:42.647Z,49.71
2023-05-10T02:20:14.251Z,49.52
2023-05-10T02:20:46.483Z,49.52
2023-05-10T02:21:17.815Z,49.67
2023-05-10T02:21:49.124Z,49.48
2023-05-10T02:22:20.527Z,49.63
2023-05-10T02:22:52.529Z,49.61
2023-05-10T02:23:23.868Z,49.85
2023-05-10T02:23:55.181Z,49.57
2023-05-10T02:24:26.493Z,49.56
2023-05-10T02:24:58.544Z,49.47
2023-05-10T02:25:29.872Z,49.55
2023-05-10T02:26:01.302Z,49.81
2023-05-10T02:26:32.791Z,49.68
2023-05-10T02:27:04.383Z,49.62
2023-05-10T02:27:35.746Z,49.42
2023-05-10T02:28:07.458Z,49.53
2023-05-10T02:28:38.792Z,49.70
2023-05-10T02:29:10.623Z,49.46
2023-05-10T02:29:41.963Z,49.80
2023-05-10T02:30:13.437Z,49.44
2023-05-10T02:30:44.895Z,49.64
2023-05-10T02:31:16.218Z,49.39
2023-05-10T02:31:47.601Z,49.70
2023-05-10T02:32:19.008Z,49.44
2023-05-10T02:32:50.732Z,49.66
2023-05-10T02:33:22.099Z,49.56
2023-05-10T02:33:53.868Z,49.58
2023-05-10T02:34:26.333Z,49.46
2023-05-10T02:34:57.725Z,49.47
2023-05-10T02:35:29.138Z,49.65
2023-05-10T02:36:00.468Z,49.46
2023-05-10T02:36:31.829Z,49.77
2023-05-10T02:37:03.205Z,49.24
2023-05-10T02:37:34.617Z,49.40
2023-05-10T02:38:05.967Z,49.23
2023-05-10T02:38:37.318Z,49.59
2023-05-10T02:39:08.829Z,49.38
2023-05-10T02:39:40.301Z,49.70
2023-05-10T02:40:11.845Z,49.44
2023-05-10T02:40:43.301Z,49.57
2023-05-10T02:41:14.675Z,49.66
2023-05-10T02:41:46.005Z,49.41
2023-05-10T02:42:17.986Z,49.54
2023-05-10T02:42:49.341Z,49.45
2023-05-10T02:43:20.779Z,49.48
2023-05-10T02:43:52.124Z,49.53
2023-05-10T02:44:23.462Z,49.52
2023-05-10T02:45:00.361Z,49.70
2023-05-10T02:45:32.144Z,49.83
2023-05-10T02:46:03.638Z,49.67
2023-05-10T02:46:35.041Z,49.59
2023-05-10T02:47:06.500Z,49.85
2023-05-10T02:47:37.956Z,49.53
2023-05-10T02:48:09.437Z,49.76
2023-05-10T02:48:40.864Z,49.53
2023-05-10T02:49:12.203Z,49.51
2023-05-10T02:49:43.569Z,49.38
2023-05-10T02:50:15.071Z,49.49
2023-05-10T02:50:46.877Z,49.70
2023-05-10T02:51:18.235Z,49.58
2023-05-10T02:51:50.360Z,49.43
2023-05-10T02:52:26.008Z,49.66
2023-05-10T02:53:00.488Z,49.54
2023-05-10T02:53:32.332Z,49.49
2023-05-10T02:54:13.752Z,49.39
2023-05-10T02:54:45.339Z,49.44
2023-05-10T02:55:17.028Z,49.39
2023-05-10T02:55:50.263Z,49.59
2023-05-10T02:56:24.623Z,49.44
2023-05-10T02:56:57.390Z,49.37
2023-05-10T02:57:29.739Z,49.58
2023-05-10T02:58:01.584Z,49.58
2023-05-10T02:58:32.969Z,49.80
2023-05-10T02:59:04.350Z,49.39
2023-05-10T02:59:35.670Z,49.66
2023-05-10T03:00:07.584Z,49.39
2023-05-10T03:00:38.889Z,49.50
2023-05-10T03:01:10.351Z,49.58
2023-05-10T03:01:41.857Z,49.65
2023-05-10T03:02:13.423Z,49.63
2023-05-10T03:02:44.847Z,49.75
2023-05-10T03:03:16.162Z,49.48
2023-05-10T03:03:47.509Z,49.52
2023-05-10T03:04:18.882Z,49.71
2023-05-10T03:04:50.278Z,49.43
2023-05-10T03:05:21.713Z,49.67
2023-05-10T03:05:53.093Z,49.52
2023-05-10T03:06:24.474Z,49.53
2023-05-10T03:06:55.844Z,49.69
2023-05-10T03:07:27.192Z,49.59
2023-05-10T03:07:58.591Z,49.43
2023-05-10T03:08:29.924Z,49.50
2023-05-10T03:09:01.296Z,49.20
2023-05-10T03:09:32.762Z,49.46
2023-05-10T03:10:04.280Z,49.25
2023-05-10T03:10:38.632Z,49.26
2023-05-10T03:11:21.662Z,49.11
2023-05-10T03:11:57.766Z,49.24
2023-05-10T03:12:47.719Z,49.32
2023-05-10T03:13:24.722Z,49.31
2023-05-10T03:14:11.229Z,49.58
2023-05-10T03:15:01.045Z,49.31
2023-05-10T03:15:52.712Z,49.15
2023-05-10T03:16:28.371Z,49.25
2023-05-10T03:17:20.097Z,49.31
2023-05-10T03:17:51.411Z,49.38
2023-05-10T03:18:23.478Z,49.25
2023-05-10T03:18:59.761Z,49.33
2023-05-10T03:19:37.828Z,49.40
2023-05-10T03:20:12.130Z,49.29
2023-05-10T03:20:43.832Z,49.49
2023-05-10T03:21:15.188Z,49.11
2023-05-10T03:21:48.415Z,48.92
2023-05-10T03:22:22.586Z,49.47
2023-05-10T03:22:59.315Z,49.43
2023-05-10T03:23:30.687Z,49.45
2023-05-10T03:24:08.056Z,49.15
2023-05-10T03:24:40.253Z,49.33
2023-05-10T03:25:11.834Z,49.03
2023-05-10T03:25:43.187Z,49.27
2023-05-10T03:26:16.792Z,49.09
2023-05-10T03:26:48.111Z,49.36
2023-05-10T03:27:19.497Z,49.08
2023-05-10T03:27:50.831Z,49.40
2023-05-10T03:28:22.214Z,49.13
2023-05-10T03:28:53.556Z,49.43
2023-05-10T03:29:25.146Z,49.07
2023-05-10T03:29:56.466Z,49.06
2023-05-10T03:30:27.859Z,49.39
2023-05-10T03:30:59.306Z,49.37
2023-05-10T03:31:30.703Z,48.96
2023-05-10T03:32:02.024Z,49.17
2023-05-10T03:32:33.401Z,49.19
2023-05-10T03:33:07.878Z,49.09
2023-05-10T03:33:46.724Z,49.40
2023-05-10T03:34:18.072Z,49.28
2023-05-10T03:34:49.453Z,48.98
2023-05-10T03:35:20.794Z,49.09
2023-05-10T03:35:52.100Z,49.30
2023-05-10T03:36:23.457Z,49.16
2023-05-10T03:36:54.812Z,49.29
2023-05-10T03:37:26.137Z,49.21
2023-05-10T03:37:57.544Z,49.38
2023-05-10T03:38:30.510Z,49.37
2023-05-10T03:39:02.068Z,49.49
2023-05-10T03:39:33.415Z,49.35
2023-05-10T03:40:05.003Z,49.13
2023-05-10T03:40:36.372Z,49.35
2023-05-10T03:41:07.726Z,49.11
2023-05-10T03:41:39.043Z,49.24
2023-05-10T03:42:10.462Z,49.13
2023-05-10T03:42:41.804Z,49.24
2023-05-10T03:43:13.150Z,49.11
2023-05-10T03:43:44.446Z,49.17
2023-05-10T03:44:15.805Z,49.50
2023-05-10T03:44:47.106Z,49.27
2023-05-10T03:45:18.520Z,49.14
2023-05-10T03:45:49.913Z,49.07
2023-05-10T03:46:21.247Z,49.00
2023-05-10T03:46:52.642Z,49.09
2023-05-10T03:47:24.128Z,49.37
2023-05-10T03:47:55.631Z,49.36
2023-05-10T03:48:27.099Z,49.06
2023-05-10T03:48:58.437Z,49.35
2023-05-10T03:49:29.800Z,49.34
2023-05-10T03:50:01.130Z,49.12
2023-05-10T03:50:32.498Z,49.22
2023-05-10T03:51:03.992Z,49.26
2023-05-10T03:51:35.366Z,49.11
2023-05-10T03:52:06.654Z,49.07
2023-05-10T03:52:38.051Z,49.24
2023-05-10T03:53:09.382Z,49.03
2023-05-10T03:53:40.724Z,49.18
2023-05-10T03:54:12.039Z,49.41
2023-05-10T03:54:43.361Z,49.08
2023-05-10T03:55:14.719Z,49.33
2023-05-10T03:55:46.083Z,49.04
2023-05-10T03:56:17.465Z,49.40
2023-05-10T03:56:48.875Z,49.17
2023-05-10T03:57:20.362Z,49.43
2023-05-10T03:57:51.710Z,49.11
2023-05-10T03:58:23.051Z,49.40
2023-05-10T03:58:54.392Z,49.16
2023-05-10T03:59:25.744Z,49.11
2023-05-10T03:59:57.046Z,49.05
2023-05-10T04:00:28.438Z,49.21
2023-05-10T04:00:59.785Z,49.33
2023-05-10T04:01:31.100Z,48.98
2023-05-10T04:02:02.606Z,49.00
2023-05-10T04:02:34.078Z,48.96
2023-05-10T04:03:05.733Z,49.17
2023-05-10T04:03:37.249Z,49.08
2023-05-10T04:04:08.877Z,49.08
2023-05-10T04:04:40.292Z,48.88
2023-05-10T04:05:11.684Z,48.87
2023-05-10T04:05:43.041Z,49.25
2023-05-10T04:06:14.463Z,49.12
2023-05-10T04:06:45.901Z,49.07
2023-05-10T04:07:17.291Z,49.42
2023-05-10T04:07:48.677Z,49.18
2023-05-10T04:08:20.029Z,48.85
2023-05-10T04:08:51.300Z,48.87
2023-05-10T04:09:22.698Z,49.06
2023-05-10T04:09:54.083Z,49.11
2023-05-10T04:10:25.453Z,48.87
2023-05-10T04:11:05.942Z,49.25
2023-05-10T04:11:37.275Z,48.62
2023-05-10T04:12:10.722Z,48.98
2023-05-10T04:12:42.560Z,48.88
2023-05-10T04:13:13.899Z,48.97
2023-05-10T04:13:45.553Z,49.10
2023-05-10T04:14:16.874Z,48.91
2023-05-10T04:14:48.248Z,49.26
2023-05-10T04:15:19.598Z,49.15
2023-05-10T04:15:50.958Z,49.14
2023-05-10T04:16:22.341Z,49.20
2023-05-10T04:16:53.710Z,49.20
2023-05-10T04:17:25.124Z,48.90
2023-05-10T04:17:56.579Z,49.00
2023-05-10T04:18:27.933Z,49.32
2023-05-10T04:18:59.281Z,49.11
2023-05-10T04:19:33.558Z,49.14
2023-05-10T04:20:05.083Z,49.13
2023-05-10T04:20:36.411Z,48.90
2023-05-10T04:21:13.836Z,48.80
2023-05-10T04:21:45.183Z,48.87
2023-05-10T04:22:16.583Z,49.07
2023-05-10T04:22:47.975Z,49.03
2023-05-10T04:23:19.369Z,49.08
2023-05-10T04:23:50.718Z,49.21
2023-05-10T04:24:22.118Z,48.81
2023-05-10T04:24:53.538Z,48.96
2023-05-10T04:25:24.928Z,49.07
2023-05-10T04:26:02.613Z,48.88
2023-05-10T04:26:34.145Z,49.10
2023-05-10T04:27:05.498Z,49.16
2023-05-10T04:27:36.869Z,49.27
2023-05-10T04:28:08.199Z,49.32
2023-05-10T04:28:39.641Z,48.94
2023-05-10T04:29:11.005Z,49.05
2023-05-10T04:29:42.355Z,48.83
2023-05-10T04:30:13.781Z,48.81
2023-05-10T04:30:45.120Z,49.04
2023-05-10T04:31:16.631Z,49.07
2023-05-10T04:31:48.125Z,48.98
2023-05-10T04:32:19.483Z,49.19
2023-05-10T04:32:50.851Z,49.15
2023-05-10T04:33:22.270Z,49.21
2023-05-10T04:33:53.653Z,49.03
2023-05-10T04:34:25.023Z,48.83
2023-05-10T04:34:56.354Z,49.01
2023-05-10T04:35:27.691Z,48.87
2023-05-10T04:35:59.072Z,49.09
2023-05-10T04:36:30.487Z,49.17
2023-05-10T04:37:01.836Z,48.97
2023-05-10T04:37:33.216Z,49.29
2023-05-10T04:38:04.617Z,49.13
2023-05-10T04:38:35.997Z,49.18
2023-05-10T04:39:07.346Z,48.85
2023-05-10T04:39:40.289Z,48.78
2023-05-10T04:40:13.535Z,48.84
2023-05-10T04:40:44.854Z,48.69
2023-05-10T04:41:16.195Z,49.01
2023-05-10T04:41:47.612Z,49.07
2023-05-10T04:42:18.948Z,49.12
2023-05-10T04:42:50.236Z,49.22
2023-05-10T04:43:21.574Z,49.25
2023-05-10T04:43:52.889Z,49.11
2023-05-10T04:44:24.321Z,48.90
2023-05-10T04:44:55.714Z,49.09
2023-05-10T04:45:27.097Z,48.87
2023-05-10T04:45:58.627Z,48.76
2023-05-10T04:46:30.023Z,48.67
2023-05-10T04:47:01.435Z,49.03
2023-05-10T04:47:32.781Z,49.03
2023-05-10T04:48:04.351Z,49.27
2023-05-10T04:48:35.788Z,49.09
2023-05-10T04:49:07.232Z,49.17
2023-05-10T04:49:38.783Z,48.94
2023-05-10T04:50:10.285Z,49.33
2023-05-10T04:50:41.851Z,49.01
2023-05-10T04:51:13.155Z,48.84
2023-05-10T04:51:44.490Z,49.01
2023-05-10T04:52:15.958Z,48.95
2023-05-10T04:52:47.384Z,49.13
2023-05-10T04:53:18.933Z,48.94
2023-05-10T04:53:57.816Z,49.06
2023-05-10T04:54:36.356Z,48.76
2023-05-10T04:55:07.916Z,48.83
2023-05-10T04:55:39.277Z,48.86
2023-05-10T04:56:10.738Z,48.72
2023-05-10T04:56:42.094Z,48.67
2023-05-10T04:57:13.616Z,48.71
2023-05-10T04:57:45.022Z,48.94
2023-05-10T04:58:16.335Z,48.95
2023-05-10T04:58:47.675Z,48.76
2023-05-10T04:59:19.259Z,48.79
2023-05-10T04:59:50.734Z,48.73
2023-05-10T05:00:22.072Z,48.66
2023-05-10T05:00:53.420Z,48.81
2023-05-10T05:01:24.913Z,48.81
2023-05-10T05:01:56.450Z,49.04
2023-05-10T05:02:27.890Z,48.66
2023-05-10T05:02:59.531Z,49.12
2023-05-10T05:03:31.061Z,48.84
2023-05-10T05:04:02.540Z,48.68
2023-05-10T05:04:36.661Z,48.83
2023-05-10T05:05:08.211Z,48.73
2023-05-10T05:05:39.560Z,48.81
2023-05-10T05:06:10.920Z,48.60
2023-05-10T05:06:42.502Z,48.77
2023-05-10T05:07:13.854Z,48.63
2023-05-10T05:07:45.200Z,48.71
2023-05-10T05:08:16.583Z,48.76
2023-05-10T05:08:47.990Z,48.97
2023-05-10T05:09:19.365Z,48.97
2023-05-10T05:09:50.703Z,48.77
2023-05-10T05:10:22.060Z,48.43
2023-05-10T05:10:53.414Z,48.50
2023-05-10T05:11:24.816Z,48.64
2023-05-10T05:11:56.169Z,48.61
2023-05-10T05:12:27.597Z,48.49
2023-05-10T05:12:59.184Z,48.53
2023-05-10T05:13:30.663Z,48.76
2023-05-10T05:14:02.177Z,48.50
2023-05-10T05:14:33.567Z,48.45
2023-05-10T05:15:06.001Z,48.76
2023-05-10T05:15:38.630Z,48.55
2023-05-10T05:16:10.158Z,48.77
2023-05-10T05:16:41.651Z,48.68
2023-05-10T05:17:13.009Z,48.51
2023-05-10T05:17:44.615Z,48.75
2023-05-10T05:18:15.979Z,48.61
2023-05-10T05:18:47.313Z,48.56
2023-05-10T05:19:18.697Z,48.45
2023-05-10T05:19:50.165Z,48.70
2023-05-10T05:20:21.499Z,48.55
2023-05-10T05:20:52.836Z,48.75
2023-05-10T05:21:24.217Z,48.72
2023-05-10T05:21:55.615Z,48.68
2023-05-10T05:22:27.080Z,48.61
2023-05-10T05:22:58.504Z,48.83
2023-05-10T05:23:29.900Z,48.68
2023-05-10T05:24:01.277Z,48.46
2023-05-10T05:24:35.769Z,48.61
2023-05-10T05:25:07.351Z,48.77
2023-05-10T05:25:38.701Z,48.92
2023-05-10T05:26:10.122Z,48.56
2023-05-10T05:26:41.532Z,48.45
2023-05-10T05:27:12.917Z,48.70
2023-05-10T05:27:44.268Z,48.47
2023-05-10T05:28:15.638Z,48.80
2023-05-10T05:28:46.973Z,48.51
2023-05-10T05:29:18.356Z,48.80
2023-05-10T05:29:49.682Z,48.79
2023-05-10T05:30:20.971Z,48.92
2023-05-10T05:30:52.371Z,48.77
2023-05-10T05:31:23.763Z,48.77
2023-05-10T05:31:55.702Z,48.75
2023-05-10T05:32:27.294Z,48.72
2023-05-10T05:32:58.735Z,48.86
2023-05-10T05:33:30.125Z,48.86
2023-05-10T05:34:01.640Z,48.51
2023-05-10T05:34:33.053Z,48.71
2023-05-10T05:35:04.646Z,48.60
2023-05-10T05:35:36.135Z,48.76
2023-05-10T05:36:07.560Z,48.76
2023-05-10T05:36:38.982Z,48.69
2023-05-10T05:37:13.457Z,48.93
2023-05-10T05:37:44.825Z,48.85
2023-05-10T05:38:16.249Z,48.65
2023-05-10T05:38:47.605Z,48.73
2023-05-10T05:39:18.965Z,48.75
2023-05-10T05:39:50.287Z,48.76
2023-05-10T05:40:21.653Z,48.91
2023-05-10T05:40:52.986Z,48.54
2023-05-10T05:41:24.374Z,48.50
2023-05-10T05:41:55.757Z,48.44
2023-05-10T05:42:27.166Z,48.76
2023-05-10T05:42:58.500Z,48.39
2023-05-10T05:43:29.843Z,48.78
2023-05-10T05:44:01.262Z,48.75
2023-05-10T05:44:32.676Z,48.81
2023-05-10T05:45:04.156Z,48.96
2023-05-10T05:45:35.512Z,48.63
2023-05-10T05:46:07.007Z,48.71
2023-05-10T05:46:38.453Z,48.48
2023-05-10T05:47:09.897Z,48.83
2023-05-10T05:47:41.496Z,48.70
2023-05-10T05:48:12.826Z,48.98
2023-05-10T05:48:44.135Z,48.55
2023-05-10T05:49:15.493Z,48.80
2023-05-10T05:49:46.954Z,48.69
2023-05-10T05:50:18.360Z,48.79
2023-05-10T05:50:49.694Z,48.62
2023-05-10T05:51:20.982Z,48.49
2023-05-10T05:51:52.431Z,48.73
2023-05-10T05:52:24.130Z,48.65
2023-05-10T05:52:55.469Z,48.90
2023-05-10T05:53:26.792Z,48.78
2023-05-10T05:53:58.118Z,48.59
2023-05-10T05:54:29.457Z,48.88
2023-05-10T05:55:00.832Z,48.88
2023-05-10T05:55:32.253Z,48.99
2023-05-10T05:56:03.716Z,48.89
2023-05-10T05:56:35.058Z,48.92
2023-05-10T05:57:06.398Z,48.78
2023-05-10T05:57:37.730Z,48.88
2023-05-10T05:58:09.406Z,48.93
2023-05-10T05:58:40.893Z,48.91
2023-05-10T05:59:12.251Z,48.68
2023-05-10T05:59:43.585Z,48.67
2023-05-10T06:00:15.003Z,48.65
2023-05-10T06:00:46.361Z,48.93
2023-05-10T06:01:17.708Z,48.80
2023-05-10T06:01:49.108Z,48.78
2023-05-10T06:02:20.437Z,48.99
2023-05-10T06:02:51.820Z,48.98
2023-05-10T06:03:23.322Z,48.98
2023-05-10T06:03:54.771Z,48.86
2023-05-10T06:04:26.330Z,48.76
2023-05-10T06:04:57.822Z,48.86
2023-05-10T06:05:29.166Z,48.74
2023-05-10T06:06:00.539Z,48.81
2023-05-10T06:06:31.942Z,48.76
2023-05-10T06:07:03.322Z,48.89
2023-05-10T06:07:34.726Z,48.88
2023-05-10T06:08:06.045Z,48.70
2023-05-10T06:08:37.376Z,49.00
2023-05-10T06:09:08.880Z,48.73
2023-05-10T06:09:40.260Z,48.77
2023-05-10T06:10:11.621Z,48.73
2023-05-10T06:10:43.092Z,48.99
2023-05-10T06:11:14.440Z,48.71
2023-05-10T06:11:45.790Z,49.01
2023-05-10T06:12:17.274Z,48.66
2023-05-10T06:12:48.703Z,48.91
2023-05-10T06:13:20.132Z,48.75
2023-05-10T06:13:51.479Z,48.67
2023-05-10T06:14:22.810Z,48.63
2023-05-10T06:14:54.142Z,49.18
2023-05-10T06:15:25.509Z,48.94
2023-05-10T06:15:56.945Z,48.65
2023-05-10T06:16:28.529Z,48.72
2023-05-10T06:17:00.002Z,49.02
2023-05-10T06:17:31.446Z,48.77
2023-05-10T06:18:02.866Z,48.77
2023-05-10T06:18:34.512Z,48.80
2023-05-10T06:19:06.055Z,48.74
2023-05-10T06:19:37.458Z,48.47
2023-05-10T06:20:09.215Z,48.84
2023-05-10T06:20:41.816Z,48.88
2023-05-10T06:21:13.246Z,48.50
2023-05-10T06:21:44.573Z,48.80
2023-05-10T06:22:15.983Z,48.76
2023-05-10T06:22:47.486Z,48.94
2023-05-10T06:23:18.887Z,48.54
2023-05-10T06:23:50.265Z,48.77
2023-05-10T06:24:21.629Z,48.69
2023-05-10T06:24:53.070Z,48.62
2023-05-10T06:25:24.546Z,48.56
2023-05-10T06:25:55.966Z,48.95
2023-05-10T06:26:27.379Z,48.74
2023-05-10T06:26:58.760Z,48.85
2023-05-10T06:27:30.176Z,49.00
2023-05-10T06:28:01.584Z,48.82
2023-05-10T06:28:32.970Z,49.02
2023-05-10T06:29:04.287Z,48.73
2023-05-10T06:29:35.681Z,49.03
2023-05-10T06:30:12.847Z,48.93
2023-05-10T06:30:44.885Z,48.65
2023-05-10T06:31:16.257Z,49.02
2023-05-10T06:31:47.714Z,48.75
2023-05-10T06:32:19.356Z,48.85
2023-05-10T06:32:50.721Z,48.72
2023-05-10T06:33:22.160Z,49.10
2023-05-10T06:33:55.383Z,48.86
2023-05-10T06:34:28.124Z,48.75
2023-05-10T06:34:59.494Z,48.69
2023-05-10T06:35:30.851Z,48.66
2023-05-10T06:36:02.206Z,48.76
2023-05-10T06:36:33.557Z,48.54
2023-05-10T06:37:04.963Z,48.94
2023-05-10T06:37:36.260Z,48.83
2023-05-10T06:38:07.602Z,49.04
2023-05-10T06:38:38.984Z,48.98
2023-05-10T06:39:10.367Z,49.17
2023-05-10T06:39:41.808Z,48.86
2023-05-10T06:40:13.213Z,49.05
2023-05-10T06:40:44.574Z,48.81
2023-05-10T06:41:15.899Z,48.74
2023-05-10T06:41:47.282Z,48.60
2023-05-10T06:42:18.713Z,48.74
2023-05-10T06:42:50.223Z,48.92
2023-05-10T06:43:21.557Z,48.89
2023-05-10T06:43:52.954Z,48.93
2023-05-10T06:44:24.370Z,48.83
2023-05-10T06:44:55.742Z,48.96
2023-05-10T06:45:27.041Z,48.99
2023-05-10T06:45:58.457Z,48.65
2023-05-10T06:46:29.845Z,48.91
2023-05-10T06:47:01.215Z,48.79
2023-05-10T06:47:32.628Z,48.76
2023-05-10T06:48:04.169Z,48.73
2023-05-10T06:48:35.555Z,48.94
2023-05-10T06:49:06.946Z,48.92
2023-05-10T06:49:38.280Z,48.66
2023-05-10T06:50:09.904Z,48.73
2023-05-10T06:50:41.327Z,48.64
2023-05-10T06:51:12.684Z,48.89
2023-05-10T06:51:44.082Z,48.88
2023-05-10T06:52:15.467Z,48.48
2023-05-10T06:52:46.841Z,48.67
2023-05-10T06:53:18.183Z,48.68
2023-05-10T06:53:49.729Z,48.69
2023-05-10T06:54:21.169Z,48.66
2023-05-10T06:54:52.754Z,48.77
2023-05-10T06:55:24.110Z,48.95
2023-05-10T06:55:55.438Z,48.99